createdAt,value
2024-02-29T00:00:39.230Z,94.01
2024-02-29T00:01:39.206Z,94.22
2024-02-29T00:02:39.132Z,95.06
2024-02-29T00:03:39.142Z,96.00
2024-02-29T00:04:39.095Z,96.63
2024-02-29T00:05:39.088Z,96.94
2024-02-29T00:06:39.123Z,97.16
2024-02-29T00:07:39.068Z,97.36
2024-02-29T00:08:39.059Z,97.63
2024-02-29T00:09:39.072Z,97.85
2024-02-29T00:10:39.025Z,97.95
2024-02-29T00:11:39.042Z,97.95
2024-02-29T00:12:39.084Z,97.85
2024-02-29T00:13:39.018Z,97.74
2024-02-29T00:14:38.992Z,97.74
2024-02-29T00:15:39.055Z,97.85
2024-02-29T00:16:38.990Z,97.85
2024-02-29T00:17:38.979Z,97.74
2024-02-29T00:18:39.090Z,97.74
2024-02-29T00:19:39.012Z,97.74
2024-02-29T00:20:38.960Z,97.74
2024-02-29T00:21:41.953Z,97.53
2024-02-29T00:22:39.006Z,97.11
2024-02-29T00:23:39.026Z,96.94
2024-02-29T00:24:39.029Z,97.16
2024-02-29T00:25:38.947Z,96.94
2024-02-29T00:26:38.983Z,96.73
2024-02-29T00:27:39.037Z,96.73
2024-02-29T00:28:38.860Z,96.84
2024-02-29T00:29:38.851Z,97.26
2024-02-29T00:30:39.030Z,97.36
2024-02-29T00:31:38.826Z,97.36
2024-02-29T00:32:38.980Z,97.36
2024-02-29T00:33:38.841Z,97.58
2024-02-29T00:34:38.785Z,97.58
2024-02-29T00:35:38.777Z,97.47
2024-02-29T00:36:38.825Z,97.36
2024-02-29T00:37:38.769Z,97.36
2024-02-29T00:38:38.746Z,97.78
2024-02-29T00:39:38.771Z,98.10
2024-02-29T00:40:38.729Z,98.10
2024-02-29T00:41:38.835Z,97.89
2024-02-29T00:42:38.777Z,97.58
2024-02-29T00:43:38.709Z,97.47
2024-02-29T00:44:38.712Z,97.36
2024-02-29T00:45:38.715Z,97.16
2024-02-29T00:46:38.723Z,97.05
2024-02-29T00:47:38.725Z,97.09
2024-02-29T00:48:38.701Z,97.09
2024-02-29T00:49:38.664Z,97.30
2024-02-29T00:50:38.645Z,97.62
2024-02-29T00:51:38.638Z,97.93
2024-02-29T00:52:38.632Z,97.93
2024-02-29T00:53:38.613Z,97.93
2024-02-29T00:54:38.636Z,98.14
2024-02-29T00:55:38.621Z,98.04
2024-02-29T00:56:38.575Z,98.14
2024-02-29T00:57:38.617Z,98.35
2024-02-29T00:58:38.553Z,98.56
2024-02-29T00:59:38.553Z,98.77
2024-02-29T01:00:38.662Z,98.88
2024-02-29T01:01:38.626Z,98.77
2024-02-29T01:02:38.523Z,98.67
2024-02-29T01:03:38.544Z,98.56
2024-02-29T01:04:38.496Z,98.35
2024-02-29T01:05:38.508Z,98.14
2024-02-29T01:06:38.545Z,98.56
2024-02-29T01:07:38.472Z,98.88
2024-02-29T01:08:38.464Z,99.08
2024-02-29T01:09:38.501Z,99.40
2024-02-29T01:10:38.447Z,99.71
2024-02-29T01:11:38.436Z,99.82
2024-02-29T01:12:38.479Z,99.88
2024-02-29T01:13:38.418Z,99.77
2024-02-29T01:14:38.404Z,99.57
2024-02-29T01:15:38.430Z,99.57
2024-02-29T01:16:38.386Z,99.77
2024-02-29T01:17:38.399Z,99.88
2024-02-29T01:18:38.388Z,99.99
2024-02-29T01:19:38.348Z,99.99
2024-02-29T01:20:38.350Z,99.99
2024-02-29T01:21:38.323Z,99.88
2024-02-29T01:22:38.334Z,99.77
2024-02-29T01:23:38.341Z,99.57
2024-02-29T01:24:38.371Z,99.46
2024-02-29T01:25:38.289Z,99.35
2024-02-29T01:26:38.283Z,99.04
2024-02-29T01:27:38.305Z,99.15
2024-02-29T01:28:38.266Z,99.25
2024-02-29T01:29:38.266Z,99.35
2024-02-29T01:30:38.501Z,99.25
2024-02-29T01:31:38.235Z,98.94
2024-02-29T01:32:38.379Z,98.72
2024-02-29T01:33:38.254Z,98.72
2024-02-29T01:34:38.205Z,98.72
2024-02-29T01:35:38.248Z,98.72
2024-02-29T01:36:38.252Z,98.72
2024-02-29T01:37:38.181Z,98.94
2024-02-29T01:38:38.169Z,99.04
2024-02-29T01:39:38.182Z,99.15
2024-02-29T01:40:38.150Z,99.35
2024-02-29T01:41:38.136Z,99.35
2024-02-29T01:42:38.250Z,99.15
2024-02-29T01:43:38.130Z,98.83
2024-02-29T01:44:38.095Z,98.52
2024-02-29T01:45:38.112Z,98.21
2024-02-29T01:46:38.159Z,97.93
2024-02-29T01:47:38.113Z,97.72
2024-02-29T01:48:38.112Z,97.72
2024-02-29T01:49:38.048Z,97.62
2024-02-29T01:50:38.041Z,97.52
2024-02-29T01:51:38.063Z,97.83
2024-02-29T01:52:38.040Z,98.25
2024-02-29T01:53:38.027Z,98.67
2024-02-29T01:54:38.138Z,99.19
2024-02-29T01:55:38.009Z,99.40
2024-02-29T01:56:37.989Z,99.71
2024-02-29T01:57:37.984Z,99.98
2024-02-29T01:58:37.962Z,99.99
2024-02-29T01:59:37.958Z,99.99
2024-02-29T02:00:38.113Z,99.98
2024-02-29T02:01:38.011Z,99.88
2024-02-29T02:02:37.948Z,99.67
2024-02-29T02:03:37.941Z,99.57
2024-02-29T02:04:37.917Z,99.46
2024-02-29T02:05:37.933Z,99.46
2024-02-29T02:06:38.043Z,99.57
2024-02-29T02:07:37.880Z,99.67
2024-02-29T02:08:37.873Z,99.77
2024-02-29T02:09:37.868Z,99.84
2024-02-29T02:10:37.857Z,99.73
2024-02-29T02:11:37.836Z,99.73
2024-02-29T02:12:37.961Z,99.63
2024-02-29T02:13:37.812Z,99.52
2024-02-29T02:14:37.804Z,99.41
2024-02-29T02:15:37.834Z,99.41
2024-02-29T02:16:37.778Z,99.31
2024-02-29T02:17:37.847Z,99.31
2024-02-29T02:18:37.842Z,99.41
2024-02-29T02:19:37.745Z,99.52
2024-02-29T02:20:37.738Z,99.41
2024-02-29T02:21:37.767Z,99.31
2024-02-29T02:22:37.735Z,99.00
2024-02-29T02:23:37.719Z,98.68
2024-02-29T02:24:37.747Z,98.37
2024-02-29T02:25:37.695Z,98.10
2024-02-29T02:26:37.690Z,97.89
2024-02-29T02:27:37.697Z,97.68
2024-02-29T02:28:37.672Z,97.47
2024-02-29T02:29:37.668Z,97.36
2024-02-29T02:30:37.691Z,97.36
2024-02-29T02:31:37.666Z,97.20
2024-02-29T02:32:37.744Z,97.20
2024-02-29T02:33:37.656Z,97.52
2024-02-29T02:34:37.619Z,97.83
2024-02-29T02:35:37.607Z,98.04
2024-02-29T02:36:37.680Z,98.14
2024-02-29T02:37:37.590Z,98.46
2024-02-29T02:38:37.570Z,98.67
2024-02-29T02:39:37.589Z,98.67
2024-02-29T02:40:37.562Z,98.77
2024-02-29T02:41:37.574Z,98.77
2024-02-29T02:42:37.616Z,98.77
2024-02-29T02:43:37.517Z,98.67
2024-02-29T02:44:37.531Z,98.56
2024-02-29T02:45:37.528Z,98.25
2024-02-29T02:46:37.480Z,97.93
2024-02-29T02:47:37.519Z,97.52
2024-02-29T02:48:37.523Z,97.30
2024-02-29T02:49:37.460Z,97.30
2024-02-29T02:50:37.472Z,97.24
2024-02-29T02:51:37.458Z,97.24
2024-02-29T02:52:37.432Z,97.45
2024-02-29T02:53:37.446Z,97.56
2024-02-29T02:54:37.473Z,97.45
2024-02-29T02:55:37.393Z,97.45
2024-02-29T02:56:37.389Z,97.56
2024-02-29T02:57:37.428Z,97.98
2024-02-29T02:58:37.366Z,97.98
2024-02-29T02:59:37.392Z,98.08
2024-02-29T03:00:37.429Z,97.87
2024-02-29T03:01:37.372Z,98.08
2024-02-29T03:02:37.329Z,98.23
2024-02-29T03:03:37.358Z,98.65
2024-02-29T03:04:37.313Z,98.75
2024-02-29T03:05:37.311Z,99.07
2024-02-29T03:06:37.412Z,99.38
2024-02-29T03:07:37.293Z,99.60
2024-02-29T03:08:37.268Z,99.80
2024-02-29T03:09:37.299Z,99.91
2024-02-29T03:10:37.269Z,99.97
2024-02-29T03:11:37.266Z,99.99
2024-02-29T03:12:37.303Z,99.87
2024-02-29T03:13:37.230Z,99.70
2024-02-29T03:14:37.212Z,99.49
2024-02-29T03:15:37.221Z,99.49
2024-02-29T03:16:37.178Z,99.49
2024-02-29T03:17:37.258Z,99.38
2024-02-29T03:18:37.300Z,99.38
2024-02-29T03:19:37.183Z,99.38
2024-02-29T03:20:37.199Z,99.38
2024-02-29T03:21:37.168Z,99.49
2024-02-29T03:22:37.159Z,99.60
2024-02-29T03:23:37.130Z,99.91
2024-02-29T03:24:37.142Z,99.99
2024-02-29T03:25:37.119Z,99.99
2024-02-29T03:26:37.084Z,99.99
2024-02-29T03:27:37.101Z,99.99
2024-02-29T03:28:37.076Z,99.99
2024-02-29T03:29:37.061Z,99.99
2024-02-29T03:30:37.102Z,99.99
2024-02-29T03:31:37.053Z,99.99
2024-02-29T03:32:37.062Z,99.99
2024-02-29T03:33:37.088Z,99.99
2024-02-29T03:34:37.023Z,99.99
2024-02-29T03:35:37.019Z,99.99
2024-02-29T03:36:37.072Z,99.99
2024-02-29T03:37:36.985Z,99.99
2024-02-29T03:38:37.011Z,99.99
2024-02-29T03:39:37.001Z,99.99
2024-02-29T03:40:36.975Z,99.99
2024-02-29T03:41:36.959Z,99.99
2024-02-29T03:42:37.140Z,99.99
2024-02-29T03:43:36.925Z,99.99
2024-02-29T03:44:36.916Z,99.99
2024-02-29T03:45:36.971Z,99.99
2024-02-29T03:46:36.918Z,99.99
2024-02-29T03:47:36.916Z,99.99
2024-02-29T03:48:36.915Z,99.99
2024-02-29T03:49:36.863Z,99.99
2024-02-29T03:50:36.858Z,99.99
2024-02-29T03:51:36.855Z,99.99
2024-02-29T03:52:36.842Z,99.99
2024-02-29T03:53:36.821Z,99.91
2024-02-29T03:54:36.903Z,99.99
2024-02-29T03:55:36.796Z,99.99
2024-02-29T03:56:36.788Z,99.99
2024-02-29T03:57:36.813Z,99.99
2024-02-29T03:58:36.786Z,99.99
2024-02-29T03:59:36.761Z,99.99
2024-02-29T04:00:36.810Z,99.99
2024-02-29T04:01:36.865Z,99.99
2024-02-29T04:02:36.749Z,99.99
2024-02-29T04:03:36.758Z,99.99
2024-02-29T04:04:36.747Z,99.99
2024-02-29T04:05:36.715Z,99.99
2024-02-29T04:06:36.739Z,99.99
2024-02-29T04:07:36.693Z,99.99
2024-02-29T04:08:36.688Z,99.99
2024-02-29T04:09:36.697Z,99.99
2024-02-29T04:10:36.673Z,99.99
2024-02-29T04:11:36.645Z,99.99
2024-02-29T04:12:36.745Z,99.74
2024-02-29T04:13:36.634Z,99.54
2024-02-29T04:14:36.621Z,99.33
2024-02-29T04:15:36.678Z,99.11
2024-02-29T04:16:36.604Z,98.80
2024-02-29T04:17:36.624Z,98.49
2024-02-29T04:18:36.686Z,98.49
2024-02-29T04:19:36.566Z,98.64
2024-02-29T04:20:36.579Z,98.85
2024-02-29T04:21:36.646Z,98.74
2024-02-29T04:22:36.575Z,98.85
2024-02-29T04:23:36.546Z,98.95
2024-02-29T04:24:36.660Z,98.95
2024-02-29T04:25:36.511Z,98.64
2024-02-29T04:26:36.498Z,98.43
2024-02-29T04:27:36.525Z,98.32
2024-02-29T04:28:36.502Z,98.22
2024-02-29T04:29:36.479Z,98.11
2024-02-29T04:30:36.567Z,98.11
2024-02-29T04:31:36.459Z,98.22
2024-02-29T04:32:36.469Z,98.36
2024-02-29T04:33:36.473Z,98.79
2024-02-29T04:34:36.425Z,99.16
2024-02-29T04:35:36.421Z,99.41
2024-02-29T04:36:36.445Z,99.52
2024-02-29T04:37:36.401Z,99.63
2024-02-29T04:38:36.406Z,99.52
2024-02-29T04:39:36.417Z,99.41
2024-02-29T04:40:36.368Z,99.21
2024-02-29T04:41:36.368Z,99.00
2024-02-29T04:42:36.398Z,98.68
2024-02-29T04:43:36.331Z,98.47
2024-02-29T04:44:36.331Z,98.26
2024-02-29T04:45:36.343Z,98.05
2024-02-29T04:46:36.309Z,98.05
2024-02-29T04:47:36.399Z,98.41
2024-02-29T04:48:36.327Z,98.79
2024-02-29T04:49:36.347Z,99.25
2024-02-29T04:50:36.262Z,99.73
2024-02-29T04:51:36.272Z,99.99
2024-02-29T04:52:36.264Z,99.99
2024-02-29T04:53:36.243Z,99.99
2024-02-29T04:54:36.350Z,99.99
2024-02-29T04:55:36.216Z,99.99
2024-02-29T04:56:36.205Z,99.99
2024-02-29T04:57:36.224Z,99.99
2024-02-29T04:58:36.190Z,99.99
2024-02-29T04:59:36.176Z,99.99
2024-02-29T05:00:36.278Z,99.99
2024-02-29T05:01:36.266Z,99.99
2024-02-29T05:02:36.162Z,99.99
2024-02-29T05:03:36.171Z,99.99
2024-02-29T05:04:36.131Z,99.99
2024-02-29T05:05:36.168Z,99.99
2024-02-29T05:06:36.152Z,99.99
2024-02-29T05:07:36.103Z,99.99
2024-02-29T05:08:36.097Z,99.99
2024-02-29T05:09:36.109Z,99.99
2024-02-29T05:10:36.088Z,99.99
2024-02-29T05:11:38.684Z,99.99
2024-02-29T05:12:36.154Z,99.99
2024-02-29T05:13:36.054Z,99.99
2024-02-29T05:14:36.058Z,99.99
2024-02-29T05:15:36.077Z,99.99
2024-02-29T05:16:36.017Z,99.99
2024-02-29T05:17:36.039Z,99.99
2024-02-29T05:18:36.045Z,99.99
2024-02-29T05:19:35.993Z,99.99
2024-02-29T05:20:35.997Z,99.99
2024-02-29T05:21:35.987Z,99.99
2024-02-29T05:22:38.711Z,99.99
2024-02-29T05:23:35.950Z,99.99
2024-02-29T05:24:36.057Z,99.99
2024-02-29T05:25:35.937Z,99.99
2024-02-29T05:26:35.918Z,99.99
2024-02-29T05:27:35.954Z,99.99
2024-02-29T05:28:35.896Z,99.99
2024-02-29T05:29:35.894Z,99.99
2024-02-29T05:30:35.985Z,99.99
2024-02-29T05:31:35.900Z,99.99
2024-02-29T05:32:35.906Z,99.99
2024-02-29T05:33:35.925Z,99.99
2024-02-29T05:34:35.840Z,99.99
2024-02-29T05:35:35.816Z,99.99
2024-02-29T05:36:35.858Z,99.99
2024-02-29T05:37:35.838Z,99.99
2024-02-29T05:38:35.794Z,99.99
2024-02-29T05:39:35.811Z,99.99
2024-02-29T05:40:35.875Z,99.99
2024-02-29T05:41:35.771Z,99.99
2024-02-29T05:42:35.842Z,99.99
2024-02-29T05:43:36.413Z,99.99
2024-02-29T05:44:35.744Z,99.99
2024-02-29T05:45:35.770Z,99.99
2024-02-29T05:46:35.731Z,99.99
2024-02-29T05:47:35.750Z,99.99
2024-02-29T05:48:35.735Z,99.99
2024-02-29T05:49:35.700Z,99.99
2024-02-29T05:50:42.190Z,99.99
2024-02-29T05:51:35.721Z,99.99
2024-02-29T05:52:35.669Z,99.99
2024-02-29T05:53:35.681Z,99.99
2024-02-29T05:54:35.709Z,99.99
2024-02-29T05:55:35.636Z,99.99
2024-02-29T05:56:35.625Z,99.99
2024-02-29T05:57:35.648Z,99.99
2024-02-29T05:58:35.607Z,99.99
2024-02-29T05:59:35.591Z,99.99
2024-02-29T06:00:35.662Z,99.99
2024-02-29T06:01:35.765Z,99.99
2024-02-29T06:02:35.581Z,99.99
2024-02-29T06:03:35.587Z,99.99
2024-02-29T06:04:35.550Z,99.99
2024-02-29T06:05:35.540Z,99.99
2024-02-29T06:06:35.916Z,99.99
2024-02-29T06:07:35.528Z,99.99
2024-02-29T06:08:35.504Z,99.99
2024-02-29T06:09:35.514Z,99.99
2024-02-29T06:10:35.497Z,99.99
2024-02-29T06:11:35.527Z,99.99
2024-02-29T06:12:35.572Z,99.99
2024-02-29T06:13:35.465Z,99.99
2024-02-29T06:14:35.456Z,99.99
2024-02-29T06:15:35.513Z,99.99
2024-02-29T06:16:35.427Z,99.99
2024-02-29T06:17:35.446Z,99.99
2024-02-29T06:18:35.484Z,99.99
2024-02-29T06:19:35.431Z,99.99
2024-02-29T06:20:35.392Z,99.99
2024-02-29T06:21:35.395Z,99.99
2024-02-29T06:22:35.384Z,99.99
2024-02-29T06:23:35.360Z,99.99
2024-02-29T06:24:35.441Z,99.99
2024-02-29T06:25:35.347Z,99.99
2024-02-29T06:26:35.339Z,99.99
2024-02-29T06:27:35.387Z,99.99
2024-02-29T06:28:35.323Z,99.99
2024-02-29T06:29:35.317Z,99.99
2024-02-29T06:30:35.369Z,99.99
2024-02-29T06:31:35.285Z,99.99
2024-02-29T06:32:35.310Z,99.99
2024-02-29T06:33:35.293Z,99.99
2024-02-29T06:34:35.261Z,99.99
2024-02-29T06:35:35.260Z,99.99
2024-02-29T06:36:35.292Z,99.99
2024-02-29T06:37:35.229Z,99.99
2024-02-29T06:38:35.215Z,99.99
2024-02-29T06:39:35.288Z,99.99
2024-02-29T06:40:35.193Z,99.99
2024-02-29T06:41:35.194Z,99.99
2024-02-29T06:42:35.262Z,99.99
2024-02-29T06:43:35.176Z,99.99
2024-02-29T06:44:35.169Z,99.99
2024-02-29T06:45:35.212Z,99.99
2024-02-29T06:46:35.144Z,99.99
2024-02-29T06:47:35.192Z,99.99
2024-02-29T06:48:35.311Z,99.99
2024-02-29T06:49:35.113Z,99.99
2024-02-29T06:50:35.089Z,99.99
2024-02-29T06:51:35.094Z,99.99
2024-02-29T06:52:35.078Z,99.99
2024-02-29T06:53:35.105Z,99.99
2024-02-29T06:54:35.165Z,99.99
2024-02-29T06:55:35.047Z,99.99
2024-02-29T06:56:35.040Z,99.99
2024-02-29T06:57:35.067Z,99.99
2024-02-29T06:58:35.018Z,99.99
2024-02-29T06:59:35.012Z,99.99
2024-02-29T07:00:35.101Z,99.99
2024-02-29T07:01:35.191Z,99.99
2024-02-29T07:02:35.005Z,99.99
2024-02-29T07:03:35.008Z,99.99
2024-02-29T07:04:34.994Z,99.99
2024-02-29T07:05:36.831Z,99.99
2024-02-29T07:06:35.028Z,99.99
2024-02-29T07:07:34.927Z,99.99
2024-02-29T07:08:34.918Z,99.99
2024-02-29T07:09:34.956Z,99.99
2024-02-29T07:10:34.885Z,99.99
2024-02-29T07:11:34.951Z,99.99
2024-02-29T07:12:35.016Z,99.99
2024-02-29T07:13:34.877Z,99.99
2024-02-29T07:14:34.864Z,99.99
2024-02-29T07:15:34.922Z,99.99
2024-02-29T07:16:34.834Z,99.99
2024-02-29T07:17:34.852Z,99.99
2024-02-29T07:18:34.952Z,99.99
2024-02-29T07:19:34.857Z,99.99
2024-02-29T07:20:34.803Z,99.99
2024-02-29T07:21:34.881Z,99.99
2024-02-29T07:22:34.819Z,99.91
2024-02-29T07:23:34.763Z,99.50
2024-02-29T07:24:34.907Z,98.72
2024-02-29T07:25:34.807Z,97.99
2024-02-29T07:26:34.731Z,97.74
2024-02-29T07:27:34.758Z,97.43
2024-02-29T07:28:34.714Z,97.53
2024-02-29T07:29:34.692Z,97.07
2024-02-29T07:30:34.763Z,96.97
2024-02-29T07:31:34.692Z,96.76
2024-02-29T07:32:34.710Z,95.67
2024-02-29T07:33:34.700Z,94.95
2024-02-29T07:34:34.647Z,94.18
2024-02-29T07:35:34.662Z,93.87
2024-02-29T07:36:34.760Z,92.68
2024-02-29T07:37:34.659Z,92.05
2024-02-29T07:38:34.615Z,92.32
2024-02-29T07:39:34.652Z,92.11
2024-02-29T07:40:34.596Z,92.07
2024-02-29T07:41:34.584Z,91.24
2024-02-29T07:42:34.755Z,90.20
2024-02-29T07:43:34.570Z,90.06
2024-02-29T07:44:34.580Z,90.06
2024-02-29T07:45:34.579Z,89.65
2024-02-29T07:46:34.535Z,88.57
2024-02-29T07:47:34.565Z,87.84
2024-02-29T07:48:34.536Z,88.15
2024-02-29T07:49:34.501Z,87.95
2024-02-29T07:50:34.501Z,87.38
2024-02-29T07:51:34.528Z,86.97
2024-02-29T07:52:34.480Z,87.18
2024-02-29T07:53:34.467Z,86.76
2024-02-29T07:54:34.490Z,87.49
2024-02-29T07:55:34.449Z,86.93
2024-02-29T07:56:34.449Z,86.62
2024-02-29T07:57:34.458Z,86.62
2024-02-29T07:58:34.419Z,86.62
2024-02-29T07:59:34.402Z,86.58
2024-02-29T08:00:34.455Z,85.96
2024-02-29T08:01:34.442Z,85.34
2024-02-29T08:02:34.405Z,85.09
2024-02-29T08:03:34.383Z,84.78
2024-02-29T08:04:34.357Z,85.30
2024-02-29T08:05:34.341Z,84.78
2024-02-29T08:06:34.503Z,84.33
2024-02-29T08:07:34.343Z,84.22
2024-02-29T08:08:34.318Z,83.81
2024-02-29T08:09:34.336Z,83.15
2024-02-29T08:10:34.292Z,83.98
2024-02-29T08:11:34.297Z,82.43
2024-02-29T08:12:34.334Z,82.80
2024-02-29T08:13:34.281Z,82.60
2024-02-29T08:14:34.249Z,82.56
2024-02-29T08:15:34.354Z,81.42
2024-02-29T08:16:34.238Z,81.63
2024-02-29T08:17:34.261Z,80.35
2024-02-29T08:18:34.395Z,80.15
2024-02-29T08:19:34.206Z,80.25
2024-02-29T08:20:34.201Z,79.32
2024-02-29T08:21:35.406Z,79.28
2024-02-29T08:22:34.190Z,78.87
2024-02-29T08:23:34.153Z,78.42
2024-02-29T08:24:34.275Z,78.42
2024-02-29T08:25:34.131Z,78.52
2024-02-29T08:26:34.131Z,77.35
2024-02-29T08:27:34.139Z,76.84
2024-02-29T08:28:34.100Z,77.45
2024-02-29T08:29:34.097Z,78.38
2024-02-29T08:30:34.112Z,76.94
2024-02-29T08:31:34.096Z,77.01
2024-02-29T08:32:34.129Z,75.67
2024-02-29T08:33:34.059Z,76.80
2024-02-29T08:34:34.058Z,75.77
2024-02-29T08:35:34.033Z,75.67
2024-02-29T08:36:34.073Z,75.15
2024-02-29T08:37:34.013Z,75.87
2024-02-29T08:38:34.011Z,74.84
2024-02-29T08:39:34.009Z,74.91
2024-02-29T08:40:34.028Z,74.71
2024-02-29T08:41:34.040Z,75.12
2024-02-29T08:42:34.004Z,74.19
2024-02-29T08:43:33.970Z,74.80
2024-02-29T08:44:33.963Z,74.46
2024-02-29T08:45:33.954Z,74.36
2024-02-29T08:46:33.921Z,75.05
2024-02-29T08:47:33.946Z,74.95
2024-02-29T08:48:33.954Z,73.36
2024-02-29T08:49:33.924Z,72.54
2024-02-29T08:50:33.883Z,71.92
2024-02-29T08:51:33.968Z,71.51
2024-02-29T08:52:33.883Z,71.20
2024-02-29T08:53:33.848Z,70.00
2024-02-29T08:54:33.872Z,71.34
2024-02-29T08:55:33.829Z,71.96
2024-02-29T08:56:33.816Z,71.55
2024-02-29T08:57:33.814Z,71.65
2024-02-29T08:58:33.793Z,71.86
2024-02-29T08:59:33.792Z,71.41
2024-02-29T09:00:33.958Z,71.00
2024-02-29T09:01:33.810Z,71.34
2024-02-29T09:02:33.791Z,71.34
2024-02-29T09:03:33.741Z,71.14
2024-02-29T09:04:33.737Z,71.14
2024-02-29T09:05:33.717Z,71.10
2024-02-29T09:06:40.707Z,71.10
2024-02-29T09:07:33.753Z,70.28
2024-02-29T09:08:33.703Z,71.41
2024-02-29T09:09:33.700Z,70.18
2024-02-29T09:10:33.664Z,70.69
2024-02-29T09:11:33.677Z,70.69
2024-02-29T09:12:33.702Z,71.07
2024-02-29T09:13:35.864Z,70.56
2024-02-29T09:14:33.641Z,69.73
2024-02-29T09:15:33.625Z,69.32
2024-02-29T09:16:33.621Z,69.18
2024-02-29T09:17:33.628Z,69.60
2024-02-29T09:18:33.615Z,70.01
2024-02-29T09:19:33.658Z,69.98
2024-02-29T09:20:33.587Z,68.33
2024-02-29T09:21:33.560Z,67.92
2024-02-29T09:22:33.562Z,68.54
2024-02-29T09:23:33.538Z,68.33
2024-02-29T09:24:33.587Z,68.54
2024-02-29T09:25:33.518Z,67.82
2024-02-29T09:26:33.500Z,68.54
2024-02-29T09:27:33.507Z,68.95
2024-02-29T09:28:33.480Z,68.61
2024-02-29T09:29:34.751Z,68.10
2024-02-29T09:30:33.483Z,67.79
2024-02-29T09:31:33.452Z,66.76
2024-02-29T09:32:33.455Z,66.63
2024-02-29T09:33:33.437Z,65.39
2024-02-29T09:34:36.705Z,65.60
2024-02-29T09:35:33.413Z,66.28
2024-02-29T09:36:33.413Z,65.98
2024-02-29T09:37:33.547Z,65.98
2024-02-29T09:38:33.411Z,64.72
2024-02-29T09:39:33.372Z,64.92
2024-02-29T09:40:42.023Z,63.69
2024-02-29T09:42:33.376Z,63.15
2024-02-29T09:43:33.326Z,63.15
2024-02-29T09:44:33.330Z,62.84
2024-02-29T09:45:33.310Z,63.05
2024-02-29T09:46:33.312Z,63.05
2024-02-29T09:47:33.320Z,62.23
2024-02-29T09:48:33.327Z,62.33
2024-02-29T09:49:33.299Z,62.84
2024-02-29T09:50:33.272Z,62.51
2024-02-29T09:51:33.235Z,63.43
2024-02-29T09:52:33.249Z,61.79
2024-02-29T09:53:33.221Z,61.27
2024-02-29T09:54:33.268Z,61.89
2024-02-29T09:55:33.211Z,61.89
2024-02-29T09:56:33.202Z,62.30
2024-02-29T09:57:33.187Z,61.79
2024-02-29T09:58:33.162Z,62.17
2024-02-29T09:59:33.163Z,62.88
2024-02-29T10:00:33.248Z,61.66
2024-02-29T10:01:33.264Z,61.76
2024-02-29T10:02:33.144Z,61.83
2024-02-29T10:03:33.123Z,61.73
2024-02-29T10:04:33.118Z,60.78
2024-02-29T10:05:33.101Z,59.86
2024-02-29T10:06:33.135Z,60.19
2024-02-29T10:07:33.114Z,60.58
2024-02-29T10:08:33.091Z,60.27
2024-02-29T10:09:33.054Z,60.17
2024-02-29T10:10:33.100Z,60.68
2024-02-29T10:11:33.166Z,59.76
2024-02-29T10:12:33.065Z,59.14
2024-02-29T10:13:33.104Z,60.68
2024-02-29T10:14:33.000Z,60.17
2024-02-29T10:15:32.995Z,60.58
2024-02-29T10:16:33.025Z,60.99
2024-02-29T10:17:33.021Z,60.78
2024-02-29T10:18:33.023Z,60.17
2024-02-29T10:19:32.967Z,59.86
2024-02-29T10:20:32.948Z,60.37
2024-02-29T10:21:32.932Z,60.14
2024-02-29T10:22:32.939Z,59.63
2024-02-29T10:23:32.926Z,60.24
2024-02-29T10:24:32.926Z,60.03
2024-02-29T10:25:32.920Z,60.85
2024-02-29T10:26:32.889Z,60.03
2024-02-29T10:27:32.892Z,59.83
2024-02-29T10:28:32.899Z,59.25
2024-02-29T10:29:32.868Z,60.10
2024-02-29T10:30:32.892Z,59.78
2024-02-29T10:31:32.833Z,60.53
2024-02-29T10:32:32.867Z,61.48
2024-02-29T10:33:32.820Z,61.48
2024-02-29T10:34:32.826Z,61.99
2024-02-29T10:35:32.796Z,62.71
2024-02-29T10:36:32.831Z,62.02
2024-02-29T10:37:32.772Z,62.23
2024-02-29T10:38:32.767Z,62.02
2024-02-29T10:39:32.747Z,62.02
2024-02-29T10:40:32.850Z,63.25
2024-02-29T10:41:32.725Z,63.05
2024-02-29T10:42:32.754Z,63.56
2024-02-29T10:43:32.722Z,62.84
2024-02-29T10:44:32.721Z,63.66
2024-02-29T10:45:32.700Z,62.51
2024-02-29T10:46:32.705Z,62.40
2024-02-29T10:47:32.694Z,61.41
2024-02-29T10:48:32.715Z,62.63
2024-02-29T10:49:32.661Z,63.05
2024-02-29T10:50:32.635Z,62.63
2024-02-29T10:51:32.627Z,62.84
2024-02-29T10:52:32.649Z,62.23
2024-02-29T10:53:32.605Z,63.56
2024-02-29T10:54:32.664Z,63.76
2024-02-29T10:55:32.625Z,63.97
2024-02-29T10:56:32.581Z,63.43
2024-02-29T10:57:32.568Z,63.32
2024-02-29T10:58:32.575Z,63.84
2024-02-29T10:59:32.536Z,62.81
2024-02-29T11:00:32.613Z,61.45
2024-02-29T11:01:32.627Z,62.48
2024-02-29T11:02:32.521Z,60.94
2024-02-29T11:03:32.506Z,61.35
2024-02-29T11:04:32.543Z,61.55
2024-02-29T11:05:32.500Z,60.94
2024-02-29T11:06:32.506Z,62.27
2024-02-29T11:07:32.527Z,61.43
2024-02-29T11:08:32.439Z,60.71
2024-02-29T11:09:32.495Z,61.09
2024-02-29T11:10:32.434Z,60.68
2024-02-29T11:11:32.460Z,60.17
2024-02-29T11:12:32.484Z,60.03
2024-02-29T11:13:32.463Z,59.32
2024-02-29T11:14:32.397Z,58.81
2024-02-29T11:15:32.373Z,59.32
2024-02-29T11:16:32.359Z,59.42
2024-02-29T11:17:32.658Z,59.19
2024-02-29T11:18:32.404Z,59.80
2024-02-29T11:19:40.050Z,57.45
2024-02-29T11:20:34.096Z,57.56
2024-02-29T11:21:32.345Z,57.97
2024-02-29T11:22:32.323Z,58.07
2024-02-29T11:23:32.277Z,58.65
2024-02-29T11:24:32.350Z,57.63
2024-02-29T11:25:32.316Z,57.20
2024-02-29T11:26:32.260Z,56.07
2024-02-29T11:27:32.287Z,56.99
2024-02-29T11:28:32.243Z,57.20
2024-02-29T11:29:32.233Z,57.09
2024-02-29T11:30:32.237Z,56.27
2024-02-29T11:31:32.202Z,56.71
2024-02-29T11:32:32.219Z,56.51
2024-02-29T11:33:32.200Z,57.63
2024-02-29T11:34:32.225Z,58.25
2024-02-29T11:35:32.173Z,56.92
2024-02-29T11:36:32.255Z,57.40
2024-02-29T11:37:34.493Z,57.20
2024-02-29T11:38:36.544Z,57.40
2024-02-29T11:39:32.125Z,57.50
2024-02-29T11:40:32.159Z,56.68
2024-02-29T11:41:32.121Z,57.29
2024-02-29T11:42:32.141Z,56.07
2024-02-29T11:43:32.106Z,56.17
2024-02-29T11:44:32.089Z,57.50
2024-02-29T11:45:32.079Z,56.99
2024-02-29T11:46:32.051Z,56.79
2024-02-29T11:47:32.079Z,56.04
2024-02-29T11:48:32.060Z,56.15
2024-02-29T11:49:32.087Z,56.15
2024-02-29T11:50:32.055Z,55.61
2024-02-29T11:51:32.009Z,55.23
2024-02-29T11:52:31.983Z,55.94
2024-02-29T11:53:31.973Z,56.53
2024-02-29T11:54:32.027Z,56.32
2024-02-29T11:55:32.180Z,55.51
2024-02-29T11:56:31.933Z,56.10
2024-02-29T11:57:31.956Z,54.67
2024-02-29T11:58:31.977Z,55.79
2024-02-29T11:59:31.918Z,55.38
2024-02-29T12:00:32.013Z,54.67
2024-02-29T12:01:31.986Z,54.90
2024-02-29T12:02:31.890Z,55.20
2024-02-29T12:03:31.902Z,55.00
2024-02-29T12:04:32.000Z,55.15
2024-02-29T12:05:31.858Z,55.36
2024-02-29T12:06:31.903Z,56.27
2024-02-29T12:07:31.901Z,56.10
2024-02-29T12:08:31.840Z,56.51
2024-02-29T12:09:31.862Z,57.12
2024-02-29T12:10:31.801Z,57.70
2024-02-29T12:11:31.870Z,56.99
2024-02-29T12:12:31.856Z,56.38
2024-02-29T12:13:31.771Z,56.38
2024-02-29T12:14:31.797Z,56.89
2024-02-29T12:15:31.759Z,56.68
2024-02-29T12:16:31.832Z,56.07
2024-02-29T12:17:31.838Z,55.63
2024-02-29T12:18:31.762Z,55.43
2024-02-29T12:19:31.753Z,56.27
2024-02-29T12:20:31.732Z,56.07
2024-02-29T12:21:31.690Z,56.68
2024-02-29T12:22:31.789Z,57.09
2024-02-29T12:23:31.696Z,56.17
2024-02-29T12:24:31.804Z,56.07
2024-02-29T12:25:31.741Z,55.97
2024-02-29T12:26:31.633Z,55.46
2024-02-29T12:27:31.661Z,56.40
2024-02-29T12:28:31.732Z,57.81
2024-02-29T12:29:31.609Z,57.09
2024-02-29T12:30:31.681Z,56.79
2024-02-29T12:31:31.633Z,56.27
2024-02-29T12:32:31.643Z,56.48
2024-02-29T12:33:31.637Z,56.86
2024-02-29T12:34:31.587Z,55.84
2024-02-29T12:35:31.597Z,55.54
2024-02-29T12:36:31.673Z,56.07
2024-02-29T12:37:34.229Z,56.48
2024-02-29T12:38:31.511Z,55.74
2024-02-29T12:39:31.501Z,54.82
2024-02-29T12:40:31.557Z,56.25
2024-02-29T12:41:31.478Z,55.13
2024-02-29T12:42:31.542Z,55.43
2024-02-29T12:43:31.540Z,55.30
2024-02-29T12:44:31.493Z,54.79
2024-02-29T12:45:31.461Z,55.51
2024-02-29T12:46:31.515Z,55.82
2024-02-29T12:47:31.479Z,55.61
2024-02-29T12:48:31.441Z,55.74
2024-02-29T12:49:31.458Z,55.23
2024-02-29T12:50:31.387Z,55.43
2024-02-29T12:51:31.394Z,55.74
2024-02-29T12:52:31.565Z,55.13
2024-02-29T12:53:31.363Z,55.97